Camden, AL

10:19 AM CST on December 09, 2016 (GMT -0600)
Buena Vista | | Change Station

Elev 272 ft 31.79 °N, 87.26 °W | Updated 6 minutes ago

Clear
Clear
41.2 °F
Feels Like 40 °F
N
3.2
Wind Variable Wind from NNE

Today
High -- | Low -- °F
--% Chance of Precip.
Yesterday
High -- | Low -- °F
Precip. -- in
Pressure 30.53 in
Visibility 10.0 miles
Clouds Clear
Windchill 40 °F
Dew Point 19 °F
Humidity 41%
Rainfall 0.00 in
Snow Depth Not available.
6:38 AM 4:45 PM
Waxing Gibbous, 75% visible
METAR KPRN 091556Z AUTO 02009KT 10SM CLR 05/M09 A3052 RMK AO2 SLP336 T00501089
Pressure 30.53 in
Visibility 10.0 miles
Clouds Clear
Windchill 40 °F
Dew Point 19 °F
Humidity 41%
Rainfall 0.00 in
Snow Depth Not available.
6:38 AM 4:45 PM
Waxing Gibbous, 75% visible
METAR KPRN 091556Z AUTO 02009KT 10SM CLR 05/M09 A3052 RMK AO2 SLP336 T00501089

10-Day Weather Forecast

Almanac

Astronomy

Dec. 09, 2016 Rise Set
Actual Time
Civil Twilight
Nautical Twilight
Astronomical Twilight
Moon
Length of Visible Light
Length of Day
Tomorrow will be .
, % of the Moon is Illuminated

Today's Extremes

State Highs State Lows

Community

WunderPhotos

Upload Photos

1,956,462 photos uploaded!

WunderBlog® & News

Nearby

Air Quality

  Air Quality AQ Index Pollutant
Not available.

Snow Depth

Station Depth Elevation

Earthquake Activity

City Distance Mag. Time & Date
Minimum magnitude displayed is 2.5.

Coastal Water Temperatures

Place Temperature

Stations

Nearby Weather Stations

Station Location Temp. Windchill Dew Point Humidity Wind Precip. Elev Updated Type
                   

Watches & Warnings

There are currently no watches in effect.